Terminal Aerodrome Forecast
Issued by NWS Knoxville/Tri Cities, TN

Current Version | Previous Version | Text Only | Print | Product List | Glossary On
Versions: 1 2 3 4 5 6 7 8 9 10 11 12 13 14 15 16 17 18 19 20 21 22 23 24 25 26 27 28 29 30 31 32 33 34 35 36 37
000
FTUS44 KMRX 252320
TAFCHA
TAF
KCHA 252320Z 2600/2624 35006KT P6SM BKN150
     FM260200 35003KT P6SM OVC100
     FM260500 34003KT 6SM -RA OVC060
     FM261000 30003KT P6SM SCT080
     FM261400 26006KT P6SM SCT120
     FM262000 20006KT P6SM BKN120=

USA.gov is the U.S. government's official web portal to all federal, state and local government web resources and services.